sensor_id;sensor_type;location;lat;lon;timestamp;temperature;humidity
37204;DHT22;23098;48.054;10.636;2023-12-14T00:00:13;5.10;99.90
37204;DHT22;23098;48.054;10.636;2023-12-14T00:02:39;5.10;99.90
37204;DHT22;23098;48.054;10.636;2023-12-14T00:05:05;5.10;99.90
37204;DHT22;23098;48.054;10.636;2023-12-14T00:07:30;5.10;99.90
37204;DHT22;23098;48.054;10.636;2023-12-14T00:09:56;5.10;99.90
37204;DHT22;23098;48.054;10.636;2023-12-14T00:12:21;5.10;99.90
37204;DHT22;23098;48.054;10.636;2023-12-14T00:14:47;5.20;99.90
37204;DHT22;23098;48.054;10.636;2023-12-14T00:17:12;5.10;99.90
37204;DHT22;23098;48.054;10.636;2023-12-14T00:19:38;5.10;99.90
37204;DHT22;23098;48.054;10.636;2023-12-14T00:22:04;5.10;99.90
37204;DHT22;23098;48.054;10.636;2023-12-14T00:24:29;5.10;99.90
37204;DHT22;23098;48.054;10.636;2023-12-14T00:26:55;5.10;99.90
37204;DHT22;23098;48.054;10.636;2023-12-14T00:29:20;5.10;99.90
37204;DHT22;23098;48.054;10.636;2023-12-14T00:31:46;5.10;99.90
37204;DHT22;23098;48.054;10.636;2023-12-14T00:34:11;5.20;99.90
37204;DHT22;23098;48.054;10.636;2023-12-14T00:36:37;5.10;99.90
37204;DHT22;23098;48.054;10.636;2023-12-14T00:39:02;5.10;99.90
37204;DHT22;23098;48.054;10.636;2023-12-14T00:41:28;5.10;99.90
37204;DHT22;23098;48.054;10.636;2023-12-14T00:43:53;5.10;99.90
37204;DHT22;23098;48.054;10.636;2023-12-14T00:46:19;5.10;99.90
37204;DHT22;23098;48.054;10.636;2023-12-14T00:48:44;5.10;99.90
37204;DHT22;23098;48.054;10.636;2023-12-14T00:51:10;5.00;99.90
37204;DHT22;23098;48.054;10.636;2023-12-14T00:53:35;5.00;99.90
37204;DHT22;23098;48.054;10.636;2023-12-14T00:56:01;5.10;99.90
37204;DHT22;23098;48.054;10.636;2023-12-14T00:58:26;5.10;99.90
37204;DHT22;23098;48.054;10.636;2023-12-14T01:00:52;5.00;99.90
37204;DHT22;23098;48.054;10.636;2023-12-14T01:03:20;5.00;99.90
37204;DHT22;23098;48.054;10.636;2023-12-14T01:05:45;5.00;99.90
37204;DHT22;23098;48.054;10.636;2023-12-14T01:08:11;5.00;99.90
37204;DHT22;23098;48.054;10.636;2023-12-14T01:10:37;4.90;99.90
37204;DHT22;23098;48.054;10.636;2023-12-14T01:13:02;4.90;99.90
37204;DHT22;23098;48.054;10.636;2023-12-14T01:15:28;4.90;99.90
37204;DHT22;23098;48.054;10.636;2023-12-14T01:17:54;4.90;99.90
37204;DHT22;23098;48.054;10.636;2023-12-14T01:20:20;4.90;99.90
37204;DHT22;23098;48.054;10.636;2023-12-14T01:22:45;4.80;99.90
37204;DHT22;23098;48.054;10.636;2023-12-14T01:25:11;4.80;99.90
37204;DHT22;23098;48.054;10.636;2023-12-14T01:27:36;4.80;99.90
37204;DHT22;23098;48.054;10.636;2023-12-14T01:30:02;4.70;99.90
37204;DHT22;23098;48.054;10.636;2023-12-14T01:32:28;4.70;99.90
37204;DHT22;23098;48.054;10.636;2023-12-14T01:34:53;4.70;99.90
37204;DHT22;23098;48.054;10.636;2023-12-14T01:37:18;4.60;99.90
37204;DHT22;23098;48.054;10.636;2023-12-14T01:39:44;4.50;99.90
37204;DHT22;23098;48.054;10.636;2023-12-14T01:42:10;4.40;99.90
37204;DHT22;23098;48.054;10.636;2023-12-14T01:44:35;4.20;99.90
37204;DHT22;23098;48.054;10.636;2023-12-14T01:47:01;4.20;99.90
37204;DHT22;23098;48.054;10.636;2023-12-14T01:49:26;4.10;99.90
37204;DHT22;23098;48.054;10.636;2023-12-14T01:51:52;4.10;99.90
37204;DHT22;23098;48.054;10.636;2023-12-14T01:54:18;4.10;99.90
37204;DHT22;23098;48.054;10.636;2023-12-14T01:56:43;4.10;99.90
37204;DHT22;23098;48.054;10.636;2023-12-14T01:59:08;4.10;99.90
37204;DHT22;23098;48.054;10.636;2023-12-14T02:01:45;4.10;99.90
37204;DHT22;23098;48.054;10.636;2023-12-14T02:04:12;4.10;99.90
37204;DHT22;23098;48.054;10.636;2023-12-14T02:06:39;4.10;99.90
37204;DHT22;23098;48.054;10.636;2023-12-14T02:09:05;4.20;99.90
37204;DHT22;23098;48.054;10.636;2023-12-14T02:11:30;4.20;99.90
37204;DHT22;23098;48.054;10.636;2023-12-14T02:13:56;4.20;99.90
37204;DHT22;23098;48.054;10.636;2023-12-14T02:16:21;4.20;99.90
37204;DHT22;23098;48.054;10.636;2023-12-14T02:18:47;4.10;99.90
37204;DHT22;23098;48.054;10.636;2023-12-14T02:21:13;4.10;99.90
37204;DHT22;23098;48.054;10.636;2023-12-14T02:23:45;4.10;99.90
37204;DHT22;23098;48.054;10.636;2023-12-14T02:26:11;4.20;99.90
37204;DHT22;23098;48.054;10.636;2023-12-14T02:28:36;4.30;99.90
37204;DHT22;23098;48.054;10.636;2023-12-14T02:31:02;4.30;99.90
37204;DHT22;23098;48.054;10.636;2023-12-14T02:33:27;4.20;99.90
37204;DHT22;23098;48.054;10.636;2023-12-14T02:35:53;4.30;99.90
37204;DHT22;23098;48.054;10.636;2023-12-14T02:38:18;4.30;99.90
37204;DHT22;23098;48.054;10.636;2023-12-14T02:40:44;4.30;99.90
37204;DHT22;23098;48.054;10.636;2023-12-14T02:43:09;4.30;99.90
37204;DHT22;23098;48.054;10.636;2023-12-14T02:45:35;4.30;99.90
37204;DHT22;23098;48.054;10.636;2023-12-14T02:48:00;4.20;99.90
37204;DHT22;23098;48.054;10.636;2023-12-14T02:50:26;4.20;99.90
37204;DHT22;23098;48.054;10.636;2023-12-14T02:52:51;4.20;99.90
37204;DHT22;23098;48.054;10.636;2023-12-14T02:55:17;4.20;99.90
37204;DHT22;23098;48.054;10.636;2023-12-14T02:57:42;4.20;99.90
37204;DHT22;23098;48.054;10.636;2023-12-14T03:00:08;4.20;99.90
37204;DHT22;23098;48.054;10.636;2023-12-14T03:02:34;4.20;99.90
37204;DHT22;23098;48.054;10.636;2023-12-14T03:04:59;4.20;99.90
37204;DHT22;23098;48.054;10.636;2023-12-14T03:07:25;4.20;99.90
37204;DHT22;23098;48.054;10.636;2023-12-14T03:09:50;4.20;99.90
37204;DHT22;23098;48.054;10.636;2023-12-14T03:12:16;4.20;99.90
37204;DHT22;23098;48.054;10.636;2023-12-14T03:14:41;4.20;99.90
37204;DHT22;23098;48.054;10.636;2023-12-14T03:17:07;4.20;99.90
37204;DHT22;23098;48.054;10.636;2023-12-14T03:19:39;4.30;99.90
37204;DHT22;23098;48.054;10.636;2023-12-14T03:22:05;4.20;99.90
37204;DHT22;23098;48.054;10.636;2023-12-14T03:24:30;4.20;99.90
37204;DHT22;23098;48.054;10.636;2023-12-14T03:26:56;4.20;99.90
37204;DHT22;23098;48.054;10.636;2023-12-14T03:29:22;4.20;99.90
37204;DHT22;23098;48.054;10.636;2023-12-14T03:31:48;4.20;99.90
37204;DHT22;23098;48.054;10.636;2023-12-14T03:34:13;4.20;99.90
37204;DHT22;23098;48.054;10.636;2023-12-14T03:36:39;4.20;99.90
37204;DHT22;23098;48.054;10.636;2023-12-14T03:39:04;4.20;99.90
37204;DHT22;23098;48.054;10.636;2023-12-14T03:41:31;4.20;99.90
37204;DHT22;23098;48.054;10.636;2023-12-14T03:43:57;4.10;99.90
37204;DHT22;23098;48.054;10.636;2023-12-14T03:46:22;4.10;99.90
37204;DHT22;23098;48.054;10.636;2023-12-14T03:48:48;4.20;99.90
37204;DHT22;23098;48.054;10.636;2023-12-14T03:51:13;4.10;99.90
37204;DHT22;23098;48.054;10.636;2023-12-14T03:53:39;4.20;99.90
37204;DHT22;23098;48.054;10.636;2023-12-14T03:56:05;4.20;99.90
37204;DHT22;23098;48.054;10.636;2023-12-14T03:58:31;4.20;99.90
37204;DHT22;23098;48.054;10.636;2023-12-14T04:00:56;4.30;99.90
37204;DHT22;23098;48.054;10.636;2023-12-14T04:03:22;4.30;99.90
37204;DHT22;23098;48.054;10.636;2023-12-14T04:05:47;4.30;99.90
37204;DHT22;23098;48.054;10.636;2023-12-14T04:08:13;4.30;99.90
37204;DHT22;23098;48.054;10.636;2023-12-14T04:10:38;4.30;99.90
37204;DHT22;23098;48.054;10.636;2023-12-14T04:13:04;4.30;99.90
37204;DHT22;23098;48.054;10.636;2023-12-14T04:15:29;4.20;99.90
37204;DHT22;23098;48.054;10.636;2023-12-14T04:17:55;4.30;99.90
37204;DHT22;23098;48.054;10.636;2023-12-14T04:20:20;4.30;99.90
37204;DHT22;23098;48.054;10.636;2023-12-14T04:22:46;4.30;99.90
37204;DHT22;23098;48.054;10.636;2023-12-14T04:25:12;4.30;99.90
37204;DHT22;23098;48.054;10.636;2023-12-14T04:27:38;4.30;99.90
37204;DHT22;23098;48.054;10.636;2023-12-14T04:30:03;4.30;99.90
37204;DHT22;23098;48.054;10.636;2023-12-14T04:32:30;4.30;99.90
37204;DHT22;23098;48.054;10.636;2023-12-14T04:34:55;4.40;99.90
37204;DHT22;23098;48.054;10.636;2023-12-14T04:37:21;4.50;99.90
37204;DHT22;23098;48.054;10.636;2023-12-14T04:39:46;4.60;99.90
37204;DHT22;23098;48.054;10.636;2023-12-14T04:42:12;4.70;99.90
37204;DHT22;23098;48.054;10.636;2023-12-14T04:44:37;4.60;99.90
37204;DHT22;23098;48.054;10.636;2023-12-14T04:47:03;4.70;99.90
37204;DHT22;23098;48.054;10.636;2023-12-14T04:49:28;4.70;99.90
37204;DHT22;23098;48.054;10.636;2023-12-14T04:51:54;4.70;99.90
37204;DHT22;23098;48.054;10.636;2023-12-14T04:54:19;4.60;99.90
37204;DHT22;23098;48.054;10.636;2023-12-14T04:56:48;4.60;99.90
37204;DHT22;23098;48.054;10.636;2023-12-14T04:59:13;4.60;99.90
37204;DHT22;23098;48.054;10.636;2023-12-14T05:01:39;4.60;99.90
37204;DHT22;23098;48.054;10.636;2023-12-14T05:04:04;4.60;99.90
37204;DHT22;23098;48.054;10.636;2023-12-14T05:06:30;4.60;99.90
37204;DHT22;23098;48.054;10.636;2023-12-14T05:08:58;4.60;99.90
37204;DHT22;23098;48.054;10.636;2023-12-14T05:11:24;4.60;99.90
37204;DHT22;23098;48.054;10.636;2023-12-14T05:13:49;4.60;99.90
37204;DHT22;23098;48.054;10.636;2023-12-14T05:16:15;4.60;99.90
37204;DHT22;23098;48.054;10.636;2023-12-14T05:18:40;4.60;99.90
37204;DHT22;23098;48.054;10.636;2023-12-14T05:21:06;4.60;99.90
37204;DHT22;23098;48.054;10.636;2023-12-14T05:23:32;4.50;99.90
37204;DHT22;23098;48.054;10.636;2023-12-14T05:25:57;4.50;99.90
37204;DHT22;23098;48.054;10.636;2023-12-14T05:28:23;4.50;99.90
37204;DHT22;23098;48.054;10.636;2023-12-14T05:30:48;4.50;99.90
37204;DHT22;23098;48.054;10.636;2023-12-14T05:33:14;4.60;99.90
37204;DHT22;23098;48.054;10.636;2023-12-14T05:35:39;4.60;99.90
37204;DHT22;23098;48.054;10.636;2023-12-14T05:38:05;4.70;99.90
37204;DHT22;23098;48.054;10.636;2023-12-14T05:40:30;4.70;99.90
37204;DHT22;23098;48.054;10.636;2023-12-14T05:42:57;4.80;99.90
37204;DHT22;23098;48.054;10.636;2023-12-14T05:45:22;4.70;99.90
37204;DHT22;23098;48.054;10.636;2023-12-14T05:47:48;4.80;99.90
37204;DHT22;23098;48.054;10.636;2023-12-14T05:50:13;4.80;99.90
37204;DHT22;23098;48.054;10.636;2023-12-14T05:52:39;4.80;99.90
37204;DHT22;23098;48.054;10.636;2023-12-14T05:55:10;4.80;99.90
37204;DHT22;23098;48.054;10.636;2023-12-14T05:57:36;4.80;99.90
37204;DHT22;23098;48.054;10.636;2023-12-14T06:00:02;4.80;99.90
37204;DHT22;23098;48.054;10.636;2023-12-14T06:02:29;4.80;99.90
37204;DHT22;23098;48.054;10.636;2023-12-14T06:04:55;4.80;99.90
37204;DHT22;23098;48.054;10.636;2023-12-14T06:07:23;4.80;99.90
37204;DHT22;23098;48.054;10.636;2023-12-14T06:09:48;4.80;99.90
37204;DHT22;23098;48.054;10.636;2023-12-14T06:12:14;4.80;99.90
37204;DHT22;23098;48.054;10.636;2023-12-14T06:14:40;4.80;99.90
37204;DHT22;23098;48.054;10.636;2023-12-14T06:17:05;4.80;99.90
37204;DHT22;23098;48.054;10.636;2023-12-14T06:19:31;4.80;99.90
37204;DHT22;23098;48.054;10.636;2023-12-14T06:21:56;4.80;99.90
37204;DHT22;23098;48.054;10.636;2023-12-14T06:24:22;4.70;99.90
37204;DHT22;23098;48.054;10.636;2023-12-14T06:26:48;4.70;99.90
37204;DHT22;23098;48.054;10.636;2023-12-14T06:29:13;4.80;99.90
37204;DHT22;23098;48.054;10.636;2023-12-14T06:31:39;4.80;99.90
37204;DHT22;23098;48.054;10.636;2023-12-14T06:34:05;4.80;99.90
37204;DHT22;23098;48.054;10.636;2023-12-14T06:36:31;4.80;99.90
37204;DHT22;23098;48.054;10.636;2023-12-14T06:38:59;4.80;99.90
37204;DHT22;23098;48.054;10.636;2023-12-14T06:41:26;4.80;99.90
37204;DHT22;23098;48.054;10.636;2023-12-14T06:43:52;4.80;99.90
37204;DHT22;23098;48.054;10.636;2023-12-14T06:46:18;4.80;99.90
37204;DHT22;23098;48.054;10.636;2023-12-14T06:48:45;4.80;99.90
37204;DHT22;23098;48.054;10.636;2023-12-14T06:51:10;4.80;99.90
37204;DHT22;23098;48.054;10.636;2023-12-14T06:53:38;4.80;99.90
37204;DHT22;23098;48.054;10.636;2023-12-14T06:56:04;4.80;99.90
37204;DHT22;23098;48.054;10.636;2023-12-14T06:58:30;4.80;99.90
37204;DHT22;23098;48.054;10.636;2023-12-14T07:00:57;4.80;99.90
37204;DHT22;23098;48.054;10.636;2023-12-14T07:03:22;4.80;99.90
37204;DHT22;23098;48.054;10.636;2023-12-14T07:05:49;4.80;99.90
37204;DHT22;23098;48.054;10.636;2023-12-14T07:08:15;4.70;99.90
37204;DHT22;23098;48.054;10.636;2023-12-14T07:10:42;4.80;99.90
37204;DHT22;23098;48.054;10.636;2023-12-14T07:13:08;4.80;99.90
37204;DHT22;23098;48.054;10.636;2023-12-14T07:15:35;4.80;99.90
37204;DHT22;23098;48.054;10.636;2023-12-14T07:18:00;4.80;99.90
37204;DHT22;23098;48.054;10.636;2023-12-14T07:20:26;4.70;99.90
37204;DHT22;23098;48.054;10.636;2023-12-14T07:22:52;4.80;99.90
37204;DHT22;23098;48.054;10.636;2023-12-14T07:25:19;4.70;99.90
37204;DHT22;23098;48.054;10.636;2023-12-14T07:27:46;4.80;99.90
37204;DHT22;23098;48.054;10.636;2023-12-14T07:30:17;4.70;99.90
37204;DHT22;23098;48.054;10.636;2023-12-14T07:32:43;4.80;99.90
37204;DHT22;23098;48.054;10.636;2023-12-14T07:35:08;4.80;99.90
37204;DHT22;23098;48.054;10.636;2023-12-14T07:37:35;4.80;99.90
37204;DHT22;23098;48.054;10.636;2023-12-14T07:40:01;4.80;99.90
37204;DHT22;23098;48.054;10.636;2023-12-14T07:42:28;4.80;99.90
37204;DHT22;23098;48.054;10.636;2023-12-14T07:44:54;4.80;99.90
37204;DHT22;23098;48.054;10.636;2023-12-14T07:47:20;4.80;99.90
37204;DHT22;23098;48.054;10.636;2023-12-14T07:49:47;4.90;99.90
37204;DHT22;23098;48.054;10.636;2023-12-14T07:52:13;4.90;99.90
37204;DHT22;23098;48.054;10.636;2023-12-14T07:54:39;4.80;99.90
37204;DHT22;23098;48.054;10.636;2023-12-14T07:57:05;4.90;99.90
37204;DHT22;23098;48.054;10.636;2023-12-14T07:59:30;4.90;99.90
37204;DHT22;23098;48.054;10.636;2023-12-14T08:01:56;4.90;99.90
37204;DHT22;23098;48.054;10.636;2023-12-14T08:04:22;4.90;99.90
37204;DHT22;23098;48.054;10.636;2023-12-14T08:06:47;4.90;99.90
37204;DHT22;23098;48.054;10.636;2023-12-14T08:09:13;4.90;99.90
37204;DHT22;23098;48.054;10.636;2023-12-14T08:11:46;4.90;99.90
37204;DHT22;23098;48.054;10.636;2023-12-14T08:14:34;5.00;99.90
37204;DHT22;23098;48.054;10.636;2023-12-14T08:17:00;5.00;99.90
37204;DHT22;23098;48.054;10.636;2023-12-14T08:19:25;5.10;99.90
37204;DHT22;23098;48.054;10.636;2023-12-14T08:21:51;5.10;99.90
37204;DHT22;23098;48.054;10.636;2023-12-14T08:24:16;5.10;99.90
37204;DHT22;23098;48.054;10.636;2023-12-14T08:26:42;5.10;99.90
37204;DHT22;23098;48.054;10.636;2023-12-14T08:29:07;5.10;99.90
37204;DHT22;23098;48.054;10.636;2023-12-14T08:31:33;5.10;99.90
37204;DHT22;23098;48.054;10.636;2023-12-14T08:33:59;5.20;99.90
37204;DHT22;23098;48.054;10.636;2023-12-14T08:36:25;5.20;99.90
37204;DHT22;23098;48.054;10.636;2023-12-14T08:38:50;5.30;99.90
37204;DHT22;23098;48.054;10.636;2023-12-14T08:41:16;5.30;99.90
37204;DHT22;23098;48.054;10.636;2023-12-14T08:43:41;5.30;99.90
37204;DHT22;23098;48.054;10.636;2023-12-14T08:46:07;5.40;99.90
37204;DHT22;23098;48.054;10.636;2023-12-14T08:48:32;5.40;99.90
37204;DHT22;23098;48.054;10.636;2023-12-14T08:50:58;5.40;99.90
37204;DHT22;23098;48.054;10.636;2023-12-14T08:53:24;5.40;99.90
37204;DHT22;23098;48.054;10.636;2023-12-14T08:55:49;5.50;99.90
37204;DHT22;23098;48.054;10.636;2023-12-14T08:58:15;5.40;99.90
37204;DHT22;23098;48.054;10.636;2023-12-14T09:00:40;5.40;99.90
37204;DHT22;23098;48.054;10.636;2023-12-14T09:03:06;5.40;99.90
37204;DHT22;23098;48.054;10.636;2023-12-14T09:05:31;5.40;99.90
37204;DHT22;23098;48.054;10.636;2023-12-14T09:07:58;5.40;99.90
37204;DHT22;23098;48.054;10.636;2023-12-14T09:10:24;5.40;99.90
37204;DHT22;23098;48.054;10.636;2023-12-14T09:12:50;5.40;99.90
37204;DHT22;23098;48.054;10.636;2023-12-14T09:15:16;5.40;99.90
37204;DHT22;23098;48.054;10.636;2023-12-14T09:17:41;5.40;99.90
37204;DHT22;23098;48.054;10.636;2023-12-14T09:20:09;5.40;99.90
37204;DHT22;23098;48.054;10.636;2023-12-14T09:22:34;5.40;99.90
37204;DHT22;23098;48.054;10.636;2023-12-14T09:25:00;5.30;99.90
37204;DHT22;23098;48.054;10.636;2023-12-14T09:27:26;5.40;99.90
37204;DHT22;23098;48.054;10.636;2023-12-14T09:29:52;5.40;99.90
37204;DHT22;23098;48.054;10.636;2023-12-14T09:32:17;5.30;99.90
37204;DHT22;23098;48.054;10.636;2023-12-14T09:34:43;5.30;99.90
37204;DHT22;23098;48.054;10.636;2023-12-14T09:37:09;5.20;99.90
37204;DHT22;23098;48.054;10.636;2023-12-14T09:39:34;5.30;99.90
37204;DHT22;23098;48.054;10.636;2023-12-14T09:42:05;5.20;99.90
37204;DHT22;23098;48.054;10.636;2023-12-14T09:44:31;5.10;99.90
37204;DHT22;23098;48.054;10.636;2023-12-14T09:47:02;5.00;99.90
37204;DHT22;23098;48.054;10.636;2023-12-14T09:49:29;5.00;99.90
37204;DHT22;23098;48.054;10.636;2023-12-14T09:51:59;4.90;99.90
37204;DHT22;23098;48.054;10.636;2023-12-14T09:54:28;4.90;99.90
37204;DHT22;23098;48.054;10.636;2023-12-14T09:56:53;4.90;99.90
37204;DHT22;23098;48.054;10.636;2023-12-14T09:59:20;4.90;99.90
37204;DHT22;23098;48.054;10.636;2023-12-14T10:01:46;4.90;99.90
37204;DHT22;23098;48.054;10.636;2023-12-14T10:04:13;4.90;99.90
37204;DHT22;23098;48.054;10.636;2023-12-14T10:06:41;5.00;99.90
37204;DHT22;23098;48.054;10.636;2023-12-14T10:09:07;5.00;99.90
37204;DHT22;23098;48.054;10.636;2023-12-14T10:11:39;5.10;99.90
37204;DHT22;23098;48.054;10.636;2023-12-14T10:14:24;5.00;99.90
37204;DHT22;23098;48.054;10.636;2023-12-14T10:16:51;5.10;99.90
37204;DHT22;23098;48.054;10.636;2023-12-14T10:19:18;5.10;99.90
37204;DHT22;23098;48.054;10.636;2023-12-14T10:21:44;5.00;99.90
37204;DHT22;23098;48.054;10.636;2023-12-14T10:24:18;5.10;99.90
37204;DHT22;23098;48.054;10.636;2023-12-14T10:27:06;5.10;99.90
37204;DHT22;23098;48.054;10.636;2023-12-14T10:29:35;5.10;99.90
37204;DHT22;23098;48.054;10.636;2023-12-14T10:32:34;5.20;99.90
37204;DHT22;23098;48.054;10.636;2023-12-14T10:35:19;5.20;99.90
37204;DHT22;23098;48.054;10.636;2023-12-14T10:37:50;5.10;99.90
37204;DHT22;23098;48.054;10.636;2023-12-14T10:40:16;5.10;99.90
37204;DHT22;23098;48.054;10.636;2023-12-14T10:42:43;5.10;99.90
37204;DHT22;23098;48.054;10.636;2023-12-14T10:45:13;5.10;99.90
37204;DHT22;23098;48.054;10.636;2023-12-14T10:47:43;5.20;99.90
37204;DHT22;23098;48.054;10.636;2023-12-14T10:50:10;5.20;99.90
37204;DHT22;23098;48.054;10.636;2023-12-14T10:52:40;5.10;99.90
37204;DHT22;23098;48.054;10.636;2023-12-14T10:55:18;5.20;99.90
37204;DHT22;23098;48.054;10.636;2023-12-14T10:57:46;5.20;99.90
37204;DHT22;23098;48.054;10.636;2023-12-14T11:00:12;5.20;99.90
37204;DHT22;23098;48.054;10.636;2023-12-14T11:02:42;5.20;99.90
37204;DHT22;23098;48.054;10.636;2023-12-14T11:05:12;5.20;99.90
37204;DHT22;23098;48.054;10.636;2023-12-14T11:10:10;5.30;99.90
37204;DHT22;23098;48.054;10.636;2023-12-14T11:12:37;5.30;99.90
37204;DHT22;23098;48.054;10.636;2023-12-14T11:15:04;5.30;99.90
37204;DHT22;23098;48.054;10.636;2023-12-14T11:17:30;5.30;99.90
37204;DHT22;23098;48.054;10.636;2023-12-14T11:19:55;5.30;99.90
37204;DHT22;23098;48.054;10.636;2023-12-14T11:22:27;5.30;99.90
37204;DHT22;23098;48.054;10.636;2023-12-14T11:24:54;5.40;99.90
37204;DHT22;23098;48.054;10.636;2023-12-14T11:27:28;5.50;99.90
37204;DHT22;23098;48.054;10.636;2023-12-14T11:29:54;5.70;99.90
37204;DHT22;23098;48.054;10.636;2023-12-14T11:32:20;5.90;99.90
37204;DHT22;23098;48.054;10.636;2023-12-14T11:34:48;6.00;99.90
37204;DHT22;23098;48.054;10.636;2023-12-14T11:37:15;6.10;99.90
37204;DHT22;23098;48.054;10.636;2023-12-14T11:39:41;6.20;99.90
37204;DHT22;23098;48.054;10.636;2023-12-14T11:42:08;6.50;99.90
37204;DHT22;23098;48.054;10.636;2023-12-14T11:44:36;6.70;99.90
37204;DHT22;23098;48.054;10.636;2023-12-14T11:47:02;6.70;99.90
37204;DHT22;23098;48.054;10.636;2023-12-14T11:49:27;6.60;99.90
37204;DHT22;23098;48.054;10.636;2023-12-14T11:51:56;6.50;99.90
37204;DHT22;23098;48.054;10.636;2023-12-14T11:54:22;6.40;99.90
37204;DHT22;23098;48.054;10.636;2023-12-14T11:56:49;6.30;99.90
37204;DHT22;23098;48.054;10.636;2023-12-14T11:59:16;6.20;99.90
37204;DHT22;23098;48.054;10.636;2023-12-14T12:02:00;6.10;99.90
37204;DHT22;23098;48.054;10.636;2023-12-14T12:04:26;6.10;99.90
37204;DHT22;23098;48.054;10.636;2023-12-14T12:07:03;6.20;99.90
37204;DHT22;23098;48.054;10.636;2023-12-14T12:09:37;6.20;99.90
37204;DHT22;23098;48.054;10.636;2023-12-14T12:12:05;6.20;99.90
37204;DHT22;23098;48.054;10.636;2023-12-14T12:14:31;6.10;99.90
37204;DHT22;23098;48.054;10.636;2023-12-14T12:16:58;6.10;99.90
37204;DHT22;23098;48.054;10.636;2023-12-14T12:19:23;6.20;99.90
37204;DHT22;23098;48.054;10.636;2023-12-14T12:21:49;6.20;99.90
37204;DHT22;23098;48.054;10.636;2023-12-14T12:24:14;6.20;99.90
37204;DHT22;23098;48.054;10.636;2023-12-14T12:26:40;6.10;99.90
37204;DHT22;23098;48.054;10.636;2023-12-14T12:29:05;6.10;99.90
37204;DHT22;23098;48.054;10.636;2023-12-14T12:31:31;6.10;99.90
37204;DHT22;23098;48.054;10.636;2023-12-14T12:33:58;6.20;99.90
37204;DHT22;23098;48.054;10.636;2023-12-14T12:36:24;6.30;99.90
37204;DHT22;23098;48.054;10.636;2023-12-14T12:38:49;6.30;99.90
37204;DHT22;23098;48.054;10.636;2023-12-14T12:41:15;6.40;99.90
37204;DHT22;23098;48.054;10.636;2023-12-14T12:43:40;6.40;99.90
37204;DHT22;23098;48.054;10.636;2023-12-14T12:46:06;6.50;99.90
37204;DHT22;23098;48.054;10.636;2023-12-14T12:48:31;6.50;99.90
37204;DHT22;23098;48.054;10.636;2023-12-14T12:50:57;6.50;99.90
37204;DHT22;23098;48.054;10.636;2023-12-14T12:53:22;6.40;99.90
37204;DHT22;23098;48.054;10.636;2023-12-14T12:55:48;6.50;99.90
37204;DHT22;23098;48.054;10.636;2023-12-14T12:58:13;6.40;99.90
37204;DHT22;23098;48.054;10.636;2023-12-14T13:00:40;6.40;99.90
37204;DHT22;23098;48.054;10.636;2023-12-14T13:03:06;6.40;99.90
37204;DHT22;23098;48.054;10.636;2023-12-14T13:05:33;6.40;99.90
37204;DHT22;23098;48.054;10.636;2023-12-14T13:08:22;6.40;99.90
37204;DHT22;23098;48.054;10.636;2023-12-14T13:10:56;6.40;99.90
37204;DHT22;23098;48.054;10.636;2023-12-14T13:13:23;6.40;99.90
37204;DHT22;23098;48.054;10.636;2023-12-14T13:15:48;6.40;99.90
37204;DHT22;23098;48.054;10.636;2023-12-14T13:18:16;6.50;99.90
37204;DHT22;23098;48.054;10.636;2023-12-14T13:20:44;6.50;99.90
37204;DHT22;23098;48.054;10.636;2023-12-14T13:23:09;6.50;99.90
37204;DHT22;23098;48.054;10.636;2023-12-14T13:25:35;6.50;99.90
37204;DHT22;23098;48.054;10.636;2023-12-14T13:28:02;6.60;99.90
37204;DHT22;23098;48.054;10.636;2023-12-14T13:30:29;6.60;99.90
37204;DHT22;23098;48.054;10.636;2023-12-14T13:32:54;6.60;99.90
37204;DHT22;23098;48.054;10.636;2023-12-14T13:35:20;6.60;99.90
37204;DHT22;23098;48.054;10.636;2023-12-14T13:37:47;6.70;99.90
37204;DHT22;23098;48.054;10.636;2023-12-14T13:40:13;6.70;99.90
37204;DHT22;23098;48.054;10.636;2023-12-14T13:42:39;6.70;99.90
37204;DHT22;23098;48.054;10.636;2023-12-14T13:45:04;6.60;99.90
37204;DHT22;23098;48.054;10.636;2023-12-14T13:47:30;6.50;99.90
37204;DHT22;23098;48.054;10.636;2023-12-14T13:49:56;6.40;99.90
37204;DHT22;23098;48.054;10.636;2023-12-14T13:52:21;6.40;99.90
37204;DHT22;23098;48.054;10.636;2023-12-14T13:54:47;6.40;99.90
37204;DHT22;23098;48.054;10.636;2023-12-14T13:57:12;6.40;99.90
37204;DHT22;23098;48.054;10.636;2023-12-14T13:59:38;6.40;99.90
37204;DHT22;23098;48.054;10.636;2023-12-14T14:02:04;6.40;99.90
37204;DHT22;23098;48.054;10.636;2023-12-14T14:04:29;6.40;99.90
37204;DHT22;23098;48.054;10.636;2023-12-14T14:06:55;6.30;99.90
37204;DHT22;23098;48.054;10.636;2023-12-14T14:09:22;6.30;99.90
37204;DHT22;23098;48.054;10.636;2023-12-14T14:11:47;6.30;99.90
37204;DHT22;23098;48.054;10.636;2023-12-14T14:14:14;6.30;99.90
37204;DHT22;23098;48.054;10.636;2023-12-14T14:16:41;6.30;99.90
37204;DHT22;23098;48.054;10.636;2023-12-14T14:19:07;6.30;99.90
37204;DHT22;23098;48.054;10.636;2023-12-14T14:21:32;6.30;99.90
37204;DHT22;23098;48.054;10.636;2023-12-14T14:23:58;6.30;99.90
37204;DHT22;23098;48.054;10.636;2023-12-14T14:26:23;6.20;99.90
37204;DHT22;23098;48.054;10.636;2023-12-14T14:28:49;6.10;99.90
37204;DHT22;23098;48.054;10.636;2023-12-14T14:31:14;6.00;99.90
37204;DHT22;23098;48.054;10.636;2023-12-14T14:33:40;5.80;99.90
37204;DHT22;23098;48.054;10.636;2023-12-14T14:36:05;5.70;99.90
37204;DHT22;23098;48.054;10.636;2023-12-14T14:38:31;5.60;99.90
37204;DHT22;23098;48.054;10.636;2023-12-14T14:40:57;5.50;99.90
37204;DHT22;23098;48.054;10.636;2023-12-14T14:43:23;5.40;99.90
37204;DHT22;23098;48.054;10.636;2023-12-14T14:45:48;5.40;99.90
37204;DHT22;23098;48.054;10.636;2023-12-14T14:48:14;5.40;99.90
37204;DHT22;23098;48.054;10.636;2023-12-14T14:50:39;5.30;99.90
37204;DHT22;23098;48.054;10.636;2023-12-14T14:53:05;5.30;99.90
37204;DHT22;23098;48.054;10.636;2023-12-14T14:55:30;5.20;99.90
37204;DHT22;23098;48.054;10.636;2023-12-14T14:57:56;5.20;99.90
37204;DHT22;23098;48.054;10.636;2023-12-14T15:00:22;5.10;99.90
37204;DHT22;23098;48.054;10.636;2023-12-14T15:02:48;5.10;99.90
37204;DHT22;23098;48.054;10.636;2023-12-14T15:05:14;5.10;99.90
37204;DHT22;23098;48.054;10.636;2023-12-14T15:07:40;5.00;99.90
37204;DHT22;23098;48.054;10.636;2023-12-14T15:10:07;5.00;99.90
37204;DHT22;23098;48.054;10.636;2023-12-14T15:12:33;4.90;99.90
37204;DHT22;23098;48.054;10.636;2023-12-14T15:14:58;4.80;99.90
37204;DHT22;23098;48.054;10.636;2023-12-14T15:17:24;4.80;99.90
37204;DHT22;23098;48.054;10.636;2023-12-14T15:19:49;4.70;99.90
37204;DHT22;23098;48.054;10.636;2023-12-14T15:22:18;4.60;99.90
37204;DHT22;23098;48.054;10.636;2023-12-14T15:24:44;4.60;99.90
37204;DHT22;23098;48.054;10.636;2023-12-14T15:27:09;4.50;99.90